sensor_id;sensor_type;location;lat;lon;timestamp;temperature;humidity
21167;DHT22;10741;52.272;9.580;2022-11-20T00:00:48;-4.20;99.90
21167;DHT22;10741;52.272;9.580;2022-11-20T00:03:13;-4.20;99.90
21167;DHT22;10741;52.272;9.580;2022-11-20T00:05:39;-4.20;99.90
21167;DHT22;10741;52.272;9.580;2022-11-20T00:08:05;-4.20;99.90
21167;DHT22;10741;52.272;9.580;2022-11-20T00:10:31;-4.20;99.90
21167;DHT22;10741;52.272;9.580;2022-11-20T00:12:59;-4.20;99.90
21167;DHT22;10741;52.272;9.580;2022-11-20T00:15:25;-4.20;99.90
21167;DHT22;10741;52.272;9.580;2022-11-20T00:17:51;-4.20;99.90
21167;DHT22;10741;52.272;9.580;2022-11-20T00:20:17;-4.30;99.90
21167;DHT22;10741;52.272;9.580;2022-11-20T00:22:42;-4.30;99.90
21167;DHT22;10741;52.272;9.580;2022-11-20T00:25:08;-4.30;99.90
21167;DHT22;10741;52.272;9.580;2022-11-20T00:27:34;-4.20;99.90
21167;DHT22;10741;52.272;9.580;2022-11-20T00:30:00;-4.20;99.90
21167;DHT22;10741;52.272;9.580;2022-11-20T00:32:25;-4.20;99.90
21167;DHT22;10741;52.272;9.580;2022-11-20T00:34:51;-4.20;99.90
21167;DHT22;10741;52.272;9.580;2022-11-20T00:37:17;-4.30;99.90
21167;DHT22;10741;52.272;9.580;2022-11-20T00:39:42;-4.30;99.90
21167;DHT22;10741;52.272;9.580;2022-11-20T00:42:08;-4.30;99.90
21167;DHT22;10741;52.272;9.580;2022-11-20T00:44:34;-4.30;99.90
21167;DHT22;10741;52.272;9.580;2022-11-20T00:46:59;-4.30;99.90
21167;DHT22;10741;52.272;9.580;2022-11-20T00:49:25;-4.30;99.90
21167;DHT22;10741;52.272;9.580;2022-11-20T00:51:51;-4.30;99.90
21167;DHT22;10741;52.272;9.580;2022-11-20T00:54:16;-4.30;99.90
21167;DHT22;10741;52.272;9.580;2022-11-20T00:56:42;-4.30;99.90
21167;DHT22;10741;52.272;9.580;2022-11-20T00:59:09;-4.30;99.90
21167;DHT22;10741;52.272;9.580;2022-11-20T01:01:36;-4.40;99.90
21167;DHT22;10741;52.272;9.580;2022-11-20T01:04:02;-4.40;99.90
21167;DHT22;10741;52.272;9.580;2022-11-20T01:06:30;-4.40;99.90
21167;DHT22;10741;52.272;9.580;2022-11-20T01:08:58;-4.40;99.90
21167;DHT22;10741;52.272;9.580;2022-11-20T01:11:31;-4.40;99.90
21167;DHT22;10741;52.272;9.580;2022-11-20T01:13:58;-4.40;99.90
21167;DHT22;10741;52.272;9.580;2022-11-20T01:16:32;-4.40;99.90
21167;DHT22;10741;52.272;9.580;2022-11-20T01:19:00;-4.40;99.90
21167;DHT22;10741;52.272;9.580;2022-11-20T01:21:28;-4.40;99.90
21167;DHT22;10741;52.272;9.580;2022-11-20T01:23:55;-4.50;99.90
21167;DHT22;10741;52.272;9.580;2022-11-20T01:26:23;-4.50;99.90
21167;DHT22;10741;52.272;9.580;2022-11-20T01:28:50;-4.50;99.90
21167;DHT22;10741;52.272;9.580;2022-11-20T01:33:44;-4.50;99.90
21167;DHT22;10741;52.272;9.580;2022-11-20T01:36:11;-4.50;99.90
21167;DHT22;10741;52.272;9.580;2022-11-20T01:38:37;-4.50;99.90
21167;DHT22;10741;52.272;9.580;2022-11-20T01:41:04;-4.50;99.90
21167;DHT22;10741;52.272;9.580;2022-11-20T01:43:30;-4.50;99.90
21167;DHT22;10741;52.272;9.580;2022-11-20T01:48:26;-4.50;99.90
21167;DHT22;10741;52.272;9.580;2022-11-20T01:50:54;-4.50;99.90
21167;DHT22;10741;52.272;9.580;2022-11-20T01:53:25;-4.50;99.90
21167;DHT22;10741;52.272;9.580;2022-11-20T01:55:55;-4.50;99.90
21167;DHT22;10741;52.272;9.580;2022-11-20T01:58:32;-4.50;99.90
21167;DHT22;10741;52.272;9.580;2022-11-20T02:00:59;-4.50;99.90
21167;DHT22;10741;52.272;9.580;2022-11-20T02:03:26;-4.50;99.90
21167;DHT22;10741;52.272;9.580;2022-11-20T02:08:26;-4.50;99.90
21167;DHT22;10741;52.272;9.580;2022-11-20T02:10:52;-4.50;99.90
21167;DHT22;10741;52.272;9.580;2022-11-20T02:13:18;-4.50;99.90
21167;DHT22;10741;52.272;9.580;2022-11-20T02:16:03;-4.50;99.90
21167;DHT22;10741;52.272;9.580;2022-11-20T02:18:30;-4.50;99.90
21167;DHT22;10741;52.272;9.580;2022-11-20T02:24:11;-4.50;99.90
21167;DHT22;10741;52.272;9.580;2022-11-20T02:26:46;-4.50;99.90
21167;DHT22;10741;52.272;9.580;2022-11-20T02:29:15;-4.50;99.90
21167;DHT22;10741;52.272;9.580;2022-11-20T02:31:42;-4.50;99.90
21167;DHT22;10741;52.272;9.580;2022-11-20T02:34:09;-4.50;99.90
21167;DHT22;10741;52.272;9.580;2022-11-20T02:36:35;-4.50;99.90
21167;DHT22;10741;52.272;9.580;2022-11-20T02:39:03;-4.50;99.90
21167;DHT22;10741;52.272;9.580;2022-11-20T02:41:36;-4.50;99.90
21167;DHT22;10741;52.272;9.580;2022-11-20T02:44:04;-4.50;99.90
21167;DHT22;10741;52.272;9.580;2022-11-20T02:46:30;-4.60;99.90
21167;DHT22;10741;52.272;9.580;2022-11-20T02:48:56;-4.60;99.90
21167;DHT22;10741;52.272;9.580;2022-11-20T02:51:23;-4.60;99.90
21167;DHT22;10741;52.272;9.580;2022-11-20T02:53:49;-4.60;99.90
21167;DHT22;10741;52.272;9.580;2022-11-20T02:56:15;-4.60;99.90
21167;DHT22;10741;52.272;9.580;2022-11-20T02:58:41;-4.70;99.90
21167;DHT22;10741;52.272;9.580;2022-11-20T03:01:07;-4.70;99.90
21167;DHT22;10741;52.272;9.580;2022-11-20T03:03:33;-4.70;99.90
21167;DHT22;10741;52.272;9.580;2022-11-20T03:05:59;-4.70;99.90
21167;DHT22;10741;52.272;9.580;2022-11-20T03:08:25;-4.70;99.90
21167;DHT22;10741;52.272;9.580;2022-11-20T03:10:51;-4.70;99.90
21167;DHT22;10741;52.272;9.580;2022-11-20T03:13:17;-4.70;99.90
21167;DHT22;10741;52.272;9.580;2022-11-20T03:15:43;-4.60;99.90
21167;DHT22;10741;52.272;9.580;2022-11-20T03:18:09;-4.60;99.90
21167;DHT22;10741;52.272;9.580;2022-11-20T03:20:34;-4.60;99.90
21167;DHT22;10741;52.272;9.580;2022-11-20T03:23:00;-4.60;99.90
21167;DHT22;10741;52.272;9.580;2022-11-20T03:25:26;-4.60;99.90
21167;DHT22;10741;52.272;9.580;2022-11-20T03:27:52;-4.60;99.90
21167;DHT22;10741;52.272;9.580;2022-11-20T03:30:18;-4.60;99.90
21167;DHT22;10741;52.272;9.580;2022-11-20T03:32:44;-4.50;99.90
21167;DHT22;10741;52.272;9.580;2022-11-20T03:35:10;-4.50;99.90
21167;DHT22;10741;52.272;9.580;2022-11-20T03:37:36;-4.40;99.90
21167;DHT22;10741;52.272;9.580;2022-11-20T03:40:01;-4.40;99.90
21167;DHT22;10741;52.272;9.580;2022-11-20T03:42:27;-4.40;99.90
21167;DHT22;10741;52.272;9.580;2022-11-20T03:45:16;-4.40;99.90
21167;DHT22;10741;52.272;9.580;2022-11-20T03:47:42;-4.40;99.90
21167;DHT22;10741;52.272;9.580;2022-11-20T03:50:10;-4.30;99.90
21167;DHT22;10741;52.272;9.580;2022-11-20T03:52:38;-4.30;99.90
21167;DHT22;10741;52.272;9.580;2022-11-20T03:55:05;-4.20;99.90
21167;DHT22;10741;52.272;9.580;2022-11-20T03:57:30;-4.20;99.90
21167;DHT22;10741;52.272;9.580;2022-11-20T03:59:56;-4.20;99.90
21167;DHT22;10741;52.272;9.580;2022-11-20T04:02:22;-4.20;99.90
21167;DHT22;10741;52.272;9.580;2022-11-20T04:04:48;-4.20;99.90
21167;DHT22;10741;52.272;9.580;2022-11-20T04:07:14;-4.30;99.90
21167;DHT22;10741;52.272;9.580;2022-11-20T04:09:39;-4.30;99.90
21167;DHT22;10741;52.272;9.580;2022-11-20T04:12:05;-4.30;99.90
21167;DHT22;10741;52.272;9.580;2022-11-20T04:14:31;-4.30;99.90
21167;DHT22;10741;52.272;9.580;2022-11-20T04:16:56;-4.20;99.90
21167;DHT22;10741;52.272;9.580;2022-11-20T04:19:22;-4.20;99.90
21167;DHT22;10741;52.272;9.580;2022-11-20T04:21:48;-4.20;99.90
21167;DHT22;10741;52.272;9.580;2022-11-20T04:24:13;-4.20;99.90
21167;DHT22;10741;52.272;9.580;2022-11-20T04:26:39;-4.20;99.90
21167;DHT22;10741;52.272;9.580;2022-11-20T04:29:05;-4.10;99.90
21167;DHT22;10741;52.272;9.580;2022-11-20T04:31:33;-4.10;99.90
21167;DHT22;10741;52.272;9.580;2022-11-20T04:34:04;-4.00;99.90
21167;DHT22;10741;52.272;9.580;2022-11-20T04:36:31;-4.00;99.90
21167;DHT22;10741;52.272;9.580;2022-11-20T04:38:59;-3.90;99.90
21167;DHT22;10741;52.272;9.580;2022-11-20T04:41:27;-3.90;99.90
21167;DHT22;10741;52.272;9.580;2022-11-20T04:43:55;-3.80;99.90
21167;DHT22;10741;52.272;9.580;2022-11-20T04:46:26;-3.80;99.90
21167;DHT22;10741;52.272;9.580;2022-11-20T04:48:52;-3.80;99.90
21167;DHT22;10741;52.272;9.580;2022-11-20T04:51:18;-3.80;99.90
21167;DHT22;10741;52.272;9.580;2022-11-20T04:53:44;-3.70;99.90
21167;DHT22;10741;52.272;9.580;2022-11-20T04:56:11;-3.80;99.90
21167;DHT22;10741;52.272;9.580;2022-11-20T04:58:38;-3.80;99.90
21167;DHT22;10741;52.272;9.580;2022-11-20T05:01:05;-3.70;99.90
21167;DHT22;10741;52.272;9.580;2022-11-20T05:03:31;-3.80;99.90
21167;DHT22;10741;52.272;9.580;2022-11-20T05:06:00;-3.80;99.90
21167;DHT22;10741;52.272;9.580;2022-11-20T05:08:27;-3.70;99.90
21167;DHT22;10741;52.272;9.580;2022-11-20T05:10:53;-3.70;99.90
21167;DHT22;10741;52.272;9.580;2022-11-20T05:13:19;-3.70;99.90
21167;DHT22;10741;52.272;9.580;2022-11-20T05:15:44;-3.70;99.90
21167;DHT22;10741;52.272;9.580;2022-11-20T05:18:10;-3.70;99.90
21167;DHT22;10741;52.272;9.580;2022-11-20T05:20:36;-3.70;99.90
21167;DHT22;10741;52.272;9.580;2022-11-20T05:23:02;-3.70;99.90
21167;DHT22;10741;52.272;9.580;2022-11-20T05:25:27;-3.70;99.90
21167;DHT22;10741;52.272;9.580;2022-11-20T05:27:53;-3.70;99.90
21167;DHT22;10741;52.272;9.580;2022-11-20T05:30:19;-3.80;99.90
21167;DHT22;10741;52.272;9.580;2022-11-20T05:32:45;-3.80;99.90
21167;DHT22;10741;52.272;9.580;2022-11-20T05:35:10;-3.80;99.90
21167;DHT22;10741;52.272;9.580;2022-11-20T05:37:36;-3.80;99.90
21167;DHT22;10741;52.272;9.580;2022-11-20T05:40:02;-3.70;99.90
21167;DHT22;10741;52.272;9.580;2022-11-20T05:42:30;-3.70;99.90
21167;DHT22;10741;52.272;9.580;2022-11-20T05:45:01;-3.70;99.90
21167;DHT22;10741;52.272;9.580;2022-11-20T05:47:28;-3.70;99.90
21167;DHT22;10741;52.272;9.580;2022-11-20T05:49:56;-3.70;99.90
21167;DHT22;10741;52.272;9.580;2022-11-20T05:52:21;-3.70;99.90
21167;DHT22;10741;52.272;9.580;2022-11-20T05:54:47;-3.70;99.90
21167;DHT22;10741;52.272;9.580;2022-11-20T05:57:13;-3.70;99.90
21167;DHT22;10741;52.272;9.580;2022-11-20T05:59:39;-3.70;99.90
21167;DHT22;10741;52.272;9.580;2022-11-20T06:02:04;-3.60;99.90
21167;DHT22;10741;52.272;9.580;2022-11-20T06:04:30;-3.60;99.90
21167;DHT22;10741;52.272;9.580;2022-11-20T06:06:56;-3.50;99.90
21167;DHT22;10741;52.272;9.580;2022-11-20T06:09:21;-3.50;99.90
21167;DHT22;10741;52.272;9.580;2022-11-20T06:11:47;-3.40;99.90
21167;DHT22;10741;52.272;9.580;2022-11-20T06:14:13;-3.30;99.90
21167;DHT22;10741;52.272;9.580;2022-11-20T06:16:38;-3.20;99.90
21167;DHT22;10741;52.272;9.580;2022-11-20T06:19:04;-3.10;99.90
21167;DHT22;10741;52.272;9.580;2022-11-20T06:21:30;-3.10;99.90
21167;DHT22;10741;52.272;9.580;2022-11-20T06:23:56;-3.00;99.90
21167;DHT22;10741;52.272;9.580;2022-11-20T06:26:23;-2.90;99.90
21167;DHT22;10741;52.272;9.580;2022-11-20T06:28:50;-2.80;99.90
21167;DHT22;10741;52.272;9.580;2022-11-20T06:31:18;-2.80;99.90
21167;DHT22;10741;52.272;9.580;2022-11-20T06:33:44;-2.70;99.90
21167;DHT22;10741;52.272;9.580;2022-11-20T06:36:12;-2.70;99.90
21167;DHT22;10741;52.272;9.580;2022-11-20T06:38:39;-2.60;99.90
21167;DHT22;10741;52.272;9.580;2022-11-20T06:41:05;-2.60;99.90
21167;DHT22;10741;52.272;9.580;2022-11-20T06:43:32;-2.50;99.90
21167;DHT22;10741;52.272;9.580;2022-11-20T06:45:58;-2.50;99.90
21167;DHT22;10741;52.272;9.580;2022-11-20T06:48:26;-2.40;99.90
21167;DHT22;10741;52.272;9.580;2022-11-20T06:50:53;-2.40;99.90
21167;DHT22;10741;52.272;9.580;2022-11-20T06:53:18;-2.40;99.90
21167;DHT22;10741;52.272;9.580;2022-11-20T06:55:45;-2.30;99.90
21167;DHT22;10741;52.272;9.580;2022-11-20T06:58:12;-2.30;99.90
21167;DHT22;10741;52.272;9.580;2022-11-20T07:00:39;-2.30;99.90
21167;DHT22;10741;52.272;9.580;2022-11-20T07:03:05;-2.20;99.90
21167;DHT22;10741;52.272;9.580;2022-11-20T07:05:32;-2.20;99.90
21167;DHT22;10741;52.272;9.580;2022-11-20T07:07:58;-2.20;99.90
21167;DHT22;10741;52.272;9.580;2022-11-20T07:10:24;-2.20;99.90
21167;DHT22;10741;52.272;9.580;2022-11-20T07:12:51;-2.10;99.90
21167;DHT22;10741;52.272;9.580;2022-11-20T07:15:18;-2.10;99.90
21167;DHT22;10741;52.272;9.580;2022-11-20T07:17:44;-2.10;99.90
21167;DHT22;10741;52.272;9.580;2022-11-20T07:20:10;-2.10;99.90
21167;DHT22;10741;52.272;9.580;2022-11-20T07:22:36;-2.00;99.90
21167;DHT22;10741;52.272;9.580;2022-11-20T07:25:01;-2.00;99.90
21167;DHT22;10741;52.272;9.580;2022-11-20T07:27:28;-1.90;99.90
21167;DHT22;10741;52.272;9.580;2022-11-20T07:29:54;-1.90;99.90
21167;DHT22;10741;52.272;9.580;2022-11-20T07:32:19;-1.90;99.90
21167;DHT22;10741;52.272;9.580;2022-11-20T07:34:45;-1.90;99.90
21167;DHT22;10741;52.272;9.580;2022-11-20T07:37:11;-1.80;99.90
21167;DHT22;10741;52.272;9.580;2022-11-20T07:39:37;-1.80;99.90
21167;DHT22;10741;52.272;9.580;2022-11-20T07:42:03;-1.80;99.90
21167;DHT22;10741;52.272;9.580;2022-11-20T07:44:28;-1.80;99.90
21167;DHT22;10741;52.272;9.580;2022-11-20T07:46:54;-1.80;99.90
21167;DHT22;10741;52.272;9.580;2022-11-20T07:49:20;-1.70;99.90
21167;DHT22;10741;52.272;9.580;2022-11-20T07:51:46;-1.70;99.90
21167;DHT22;10741;52.272;9.580;2022-11-20T07:54:11;-1.70;99.90
21167;DHT22;10741;52.272;9.580;2022-11-20T07:56:37;-1.60;99.90
21167;DHT22;10741;52.272;9.580;2022-11-20T07:59:03;-1.60;99.90
21167;DHT22;10741;52.272;9.580;2022-11-20T08:01:29;-1.60;99.90
21167;DHT22;10741;52.272;9.580;2022-11-20T08:03:54;-1.50;99.90
21167;DHT22;10741;52.272;9.580;2022-11-20T08:06:20;-1.50;99.90
21167;DHT22;10741;52.272;9.580;2022-11-20T08:08:46;-1.50;99.90
21167;DHT22;10741;52.272;9.580;2022-11-20T08:11:12;-1.40;99.90
21167;DHT22;10741;52.272;9.580;2022-11-20T08:13:56;-1.40;99.90
21167;DHT22;10741;52.272;9.580;2022-11-20T08:16:47;-1.40;99.90
21167;DHT22;10741;52.272;9.580;2022-11-20T08:19:15;-1.30;99.90
21167;DHT22;10741;52.272;9.580;2022-11-20T08:21:41;-1.30;99.90
21167;DHT22;10741;52.272;9.580;2022-11-20T08:24:08;-1.30;99.90
21167;DHT22;10741;52.272;9.580;2022-11-20T08:26:35;-1.20;99.90
21167;DHT22;10741;52.272;9.580;2022-11-20T08:29:01;-1.20;99.90
21167;DHT22;10741;52.272;9.580;2022-11-20T08:31:27;-1.20;99.90
21167;DHT22;10741;52.272;9.580;2022-11-20T08:33:54;-1.10;99.90
21167;DHT22;10741;52.272;9.580;2022-11-20T08:36:21;-1.10;99.90
21167;DHT22;10741;52.272;9.580;2022-11-20T08:38:51;-1.00;99.90
21167;DHT22;10741;52.272;9.580;2022-11-20T08:41:17;-1.00;99.90
21167;DHT22;10741;52.272;9.580;2022-11-20T08:43:58;-1.00;99.90
21167;DHT22;10741;52.272;9.580;2022-11-20T08:46:27;-1.00;99.90
21167;DHT22;10741;52.272;9.580;2022-11-20T08:48:53;-0.90;99.90
21167;DHT22;10741;52.272;9.580;2022-11-20T08:51:19;-0.90;99.90
21167;DHT22;10741;52.272;9.580;2022-11-20T08:53:46;-0.80;99.90
21167;DHT22;10741;52.272;9.580;2022-11-20T08:56:14;-0.70;99.90
21167;DHT22;10741;52.272;9.580;2022-11-20T08:58:40;-0.50;99.90
21167;DHT22;10741;52.272;9.580;2022-11-20T09:01:06;-0.50;99.90
21167;DHT22;10741;52.272;9.580;2022-11-20T09:03:32;-0.30;99.90
21167;DHT22;10741;52.272;9.580;2022-11-20T09:06:04;-0.20;99.90
21167;DHT22;10741;52.272;9.580;2022-11-20T09:08:30;-0.20;99.90
21167;DHT22;10741;52.272;9.580;2022-11-20T09:10:56;-0.10;99.90
21167;DHT22;10741;52.272;9.580;2022-11-20T09:13:23;0.00;99.90
21167;DHT22;10741;52.272;9.580;2022-11-20T09:15:57;0.00;99.90
21167;DHT22;10741;52.272;9.580;2022-11-20T09:18:24;0.00;99.90
21167;DHT22;10741;52.272;9.580;2022-11-20T09:20:50;0.10;99.90
21167;DHT22;10741;52.272;9.580;2022-11-20T09:23:17;0.10;99.90
21167;DHT22;10741;52.272;9.580;2022-11-20T09:25:43;0.20;99.90
21167;DHT22;10741;52.272;9.580;2022-11-20T09:28:09;0.20;99.90
21167;DHT22;10741;52.272;9.580;2022-11-20T09:30:34;0.20;99.90
21167;DHT22;10741;52.272;9.580;2022-11-20T09:33:00;0.20;99.90
21167;DHT22;10741;52.272;9.580;2022-11-20T09:35:26;0.20;99.90
21167;DHT22;10741;52.272;9.580;2022-11-20T09:37:52;0.10;99.90
21167;DHT22;10741;52.272;9.580;2022-11-20T09:40:26;0.10;99.90
21167;DHT22;10741;52.272;9.580;2022-11-20T09:54:15;2.80;99.90
21167;DHT22;10741;52.272;9.580;2022-11-20T09:57:03;3.00;99.90
21167;DHT22;10741;52.272;9.580;2022-11-20T09:59:44;3.10;99.90
21167;DHT22;10741;52.272;9.580;2022-11-20T10:07:52;3.20;99.90
21167;DHT22;10741;52.272;9.580;2022-11-20T10:24:42;2.90;99.90
21167;DHT22;10741;52.272;9.580;2022-11-20T10:29:46;2.90;99.90
21167;DHT22;10741;52.272;9.580;2022-11-20T10:32:19;3.00;99.90
21167;DHT22;10741;52.272;9.580;2022-11-20T10:34:59;3.10;99.90
21167;DHT22;10741;52.272;9.580;2022-11-20T10:37:27;3.00;99.90
21167;DHT22;10741;52.272;9.580;2022-11-20T10:42:37;3.30;99.90
21167;DHT22;10741;52.272;9.580;2022-11-20T10:47:39;3.20;99.90
21167;DHT22;10741;52.272;9.580;2022-11-20T10:50:11;3.20;99.90
21167;DHT22;10741;52.272;9.580;2022-11-20T10:55:30;3.20;99.90
21167;DHT22;10741;52.272;9.580;2022-11-20T10:58:15;3.20;99.90
21167;DHT22;10741;52.272;9.580;2022-11-20T11:00:44;3.10;99.90
21167;DHT22;10741;52.272;9.580;2022-11-20T11:03:28;3.00;99.90
21167;DHT22;10741;52.272;9.580;2022-11-20T11:06:02;3.00;99.90
21167;DHT22;10741;52.272;9.580;2022-11-20T11:08:37;3.00;99.90
21167;DHT22;10741;52.272;9.580;2022-11-20T11:11:24;2.90;99.90
21167;DHT22;10741;52.272;9.580;2022-11-20T11:13:52;2.90;99.90
21167;DHT22;10741;52.272;9.580;2022-11-20T11:16:26;2.90;99.90
21167;DHT22;10741;52.272;9.580;2022-11-20T11:19:03;2.90;99.90
21167;DHT22;10741;52.272;9.580;2022-11-20T11:21:29;3.10;99.90
21167;DHT22;10741;52.272;9.580;2022-11-20T11:24:04;3.30;99.90
21167;DHT22;10741;52.272;9.580;2022-11-20T11:26:30;3.50;99.90
21167;DHT22;10741;52.272;9.580;2022-11-20T11:29:00;3.60;99.90
21167;DHT22;10741;52.272;9.580;2022-11-20T11:31:28;3.50;99.90
21167;DHT22;10741;52.272;9.580;2022-11-20T11:34:11;3.50;99.90
21167;DHT22;10741;52.272;9.580;2022-11-20T11:36:38;3.60;99.90
21167;DHT22;10741;52.272;9.580;2022-11-20T11:39:08;3.60;99.90
21167;DHT22;10741;52.272;9.580;2022-11-20T11:41:36;3.60;99.90
21167;DHT22;10741;52.272;9.580;2022-11-20T11:44:23;3.70;99.90
21167;DHT22;10741;52.272;9.580;2022-11-20T11:47:29;3.80;99.90
21167;DHT22;10741;52.272;9.580;2022-11-20T11:50:16;3.70;99.90
21167;DHT22;10741;52.272;9.580;2022-11-20T11:58:28;4.00;99.90
21167;DHT22;10741;52.272;9.580;2022-11-20T12:01:17;4.10;99.90
21167;DHT22;10741;52.272;9.580;2022-11-20T12:06:40;4.00;99.90
21167;DHT22;10741;52.272;9.580;2022-11-20T12:09:10;4.10;99.90
21167;DHT22;10741;52.272;9.580;2022-11-20T12:11:58;4.00;99.90
21167;DHT22;10741;52.272;9.580;2022-11-20T12:14:39;4.00;99.90
21167;DHT22;10741;52.272;9.580;2022-11-20T12:17:11;4.20;99.90
21167;DHT22;10741;52.272;9.580;2022-11-20T12:19:37;4.30;99.90
21167;DHT22;10741;52.272;9.580;2022-11-20T12:30:10;3.90;99.90
21167;DHT22;10741;52.272;9.580;2022-11-20T12:40:55;4.30;99.90
21167;DHT22;10741;52.272;9.580;2022-11-20T12:43:27;4.20;99.90
21167;DHT22;10741;52.272;9.580;2022-11-20T12:46:43;4.10;99.90
21167;DHT22;10741;52.272;9.580;2022-11-20T12:49:22;4.00;99.90
21167;DHT22;10741;52.272;9.580;2022-11-20T13:00:20;3.70;99.90
21167;DHT22;10741;52.272;9.580;2022-11-20T13:03:06;3.50;99.90
21167;DHT22;10741;52.272;9.580;2022-11-20T13:05:44;3.30;99.90
21167;DHT22;10741;52.272;9.580;2022-11-20T13:08:20;3.30;99.90
21167;DHT22;10741;52.272;9.580;2022-11-20T13:16:33;3.40;99.90
21167;DHT22;10741;52.272;9.580;2022-11-20T13:19:04;3.50;99.90
21167;DHT22;10741;52.272;9.580;2022-11-20T13:21:40;3.60;99.90
21167;DHT22;10741;52.272;9.580;2022-11-20T13:24:06;3.70;99.90
21167;DHT22;10741;52.272;9.580;2022-11-20T13:26:32;3.90;99.90
21167;DHT22;10741;52.272;9.580;2022-11-20T13:29:08;4.00;99.90
21167;DHT22;10741;52.272;9.580;2022-11-20T13:31:35;4.00;99.90
21167;DHT22;10741;52.272;9.580;2022-11-20T13:34:04;3.90;99.90
21167;DHT22;10741;52.272;9.580;2022-11-20T13:36:31;3.90;99.90
21167;DHT22;10741;52.272;9.580;2022-11-20T13:38:58;3.80;99.90
21167;DHT22;10741;52.272;9.580;2022-11-20T13:41:31;3.70;99.90
21167;DHT22;10741;52.272;9.580;2022-11-20T13:44:06;3.70;99.90
21167;DHT22;10741;52.272;9.580;2022-11-20T13:46:42;4.40;99.90
21167;DHT22;10741;52.272;9.580;2022-11-20T13:49:18;5.50;99.90
21167;DHT22;10741;52.272;9.580;2022-11-20T13:51:46;6.40;99.90
21167;DHT22;10741;52.272;9.580;2022-11-20T13:54:26;7.20;99.90
21167;DHT22;10741;52.272;9.580;2022-11-20T14:02:20;8.10;99.90
21167;DHT22;10741;52.272;9.580;2022-11-20T14:04:53;7.40;99.90
21167;DHT22;10741;52.272;9.580;2022-11-20T14:07:22;6.90;99.90
21167;DHT22;10741;52.272;9.580;2022-11-20T14:09:53;6.30;99.90
21167;DHT22;10741;52.272;9.580;2022-11-20T14:12:31;5.70;99.90
21167;DHT22;10741;52.272;9.580;2022-11-20T14:14:57;5.30;99.90
21167;DHT22;10741;52.272;9.580;2022-11-20T14:17:34;4.90;99.90
21167;DHT22;10741;52.272;9.580;2022-11-20T14:20:06;4.40;99.90
21167;DHT22;10741;52.272;9.580;2022-11-20T14:22:32;4.10;99.90
21167;DHT22;10741;52.272;9.580;2022-11-20T14:27:28;3.90;99.90
21167;DHT22;10741;52.272;9.580;2022-11-20T14:29:54;3.90;99.90
21167;DHT22;10741;52.272;9.580;2022-11-20T14:32:25;3.70;99.90
21167;DHT22;10741;52.272;9.580;2022-11-20T14:34:53;3.60;99.90
21167;DHT22;10741;52.272;9.580;2022-11-20T14:37:24;3.50;99.90
21167;DHT22;10741;52.272;9.580;2022-11-20T14:39:55;3.40;99.90
21167;DHT22;10741;52.272;9.580;2022-11-20T14:42:24;3.30;99.90
21167;DHT22;10741;52.272;9.580;2022-11-20T14:44:52;3.20;99.90
21167;DHT22;10741;52.272;9.580;2022-11-20T14:47:23;3.00;99.90
21167;DHT22;10741;52.272;9.580;2022-11-20T14:49:51;2.80;99.90
21167;DHT22;10741;52.272;9.580;2022-11-20T14:52:20;2.60;99.90
21167;DHT22;10741;52.272;9.580;2022-11-20T14:54:55;2.40;99.90
21167;DHT22;10741;52.272;9.580;2022-11-20T14:57:27;2.30;99.90
21167;DHT22;10741;52.272;9.580;2022-11-20T15:00:19;2.10;99.90
21167;DHT22;10741;52.272;9.580;2022-11-20T15:02:48;1.90;99.90
21167;DHT22;10741;52.272;9.580;2022-11-20T15:05:15;1.80;99.90
21167;DHT22;10741;52.272;9.580;2022-11-20T15:07:44;1.60;99.90
21167;DHT22;10741;52.272;9.580;2022-11-20T15:10:20;1.50;99.90
21167;DHT22;10741;52.272;9.580;2022-11-20T15:12:58;1.30;99.90
21167;DHT22;10741;52.272;9.580;2022-11-20T15:15:50;1.20;99.90
21167;DHT22;10741;52.272;9.580;2022-11-20T15:20:51;1.00;99.90
21167;DHT22;10741;52.272;9.580;2022-11-20T15:23:18;0.90;99.90
21167;DHT22;10741;52.272;9.580;2022-11-20T15:25:45;0.80;99.90
21167;DHT22;10741;52.272;9.580;2022-11-20T15:28:31;0.70;99.90
21167;DHT22;10741;52.272;9.580;2022-11-20T15:30:59;0.60;99.90
21167;DHT22;10741;52.272;9.580;2022-11-20T15:33:25;0.40;99.90
21167;DHT22;10741;52.272;9.580;2022-11-20T15:35:51;0.30;99.90
21167;DHT22;10741;52.272;9.580;2022-11-20T15:38:17;0.30;99.90
21167;DHT22;10741;52.272;9.580;2022-11-20T15:40:42;0.10;99.90
21167;DHT22;10741;52.272;9.580;2022-11-20T15:43:08;0.00;99.90
21167;DHT22;10741;52.272;9.580;2022-11-20T15:45:47;-0.10;99.90
21167;DHT22;10741;52.272;9.580;2022-11-20T15:48:27;-0.10;99.90
21167;DHT22;10741;52.272;9.580;2022-11-20T15:51:10;-0.20;99.90
21167;DHT22;10741;52.272;9.580;2022-11-20T15:53:38;-0.30;99.90
21167;DHT22;10741;52.272;9.580;2022-11-20T15:56:05;-0.30;99.90
21167;DHT22;10741;52.272;9.580;2022-11-20T15:58:32;-0.40;99.90
21167;DHT22;10741;52.272;9.580;2022-11-20T16:00:57;-0.40;99.90
21167;DHT22;10741;52.272;9.580;2022-11-20T16:03:23;-0.50;99.90
21167;DHT22;10741;52.272;9.580;2022-11-20T16:05:49;-0.50;99.90
21167;DHT22;10741;52.272;9.580;2022-11-20T16:08:15;-0.50;99.90
21167;DHT22;10741;52.272;9.580;2022-11-20T16:10:41;-0.50;99.90
21167;DHT22;10741;52.272;9.580;2022-11-20T16:13:15;-0.50;99.90
21167;DHT22;10741;52.272;9.580;2022-11-20T16:16:02;-0.40;99.90
21167;DHT22;10741;52.272;9.580;2022-11-20T16:18:30;-0.40;99.90
21167;DHT22;10741;52.272;9.580;2022-11-20T16:20:57;-0.40;99.90
21167;DHT22;10741;52.272;9.580;2022-11-20T16:23:23;-0.40;99.90
21167;DHT22;10741;52.272;9.580;2022-11-20T16:25:49;-0.40;99.90
21167;DHT22;10741;52.272;9.580;2022-11-20T16:28:15;-0.30;99.90
21167;DHT22;10741;52.272;9.580;2022-11-20T16:30:41;-0.30;99.90
21167;DHT22;10741;52.272;9.580;2022-11-20T16:33:15;-0.30;99.90
21167;DHT22;10741;52.272;9.580;2022-11-20T16:35:42;-0.30;99.90
21167;DHT22;10741;52.272;9.580;2022-11-20T16:38:08;-0.30;99.90
21167;DHT22;10741;52.272;9.580;2022-11-20T16:40:34;-0.30;99.90
21167;DHT22;10741;52.272;9.580;2022-11-20T16:43:10;-0.30;99.90
21167;DHT22;10741;52.272;9.580;2022-11-20T16:45:42;-0.30;99.90
21167;DHT22;10741;52.272;9.580;2022-11-20T16:48:11;-0.30;99.90
21167;DHT22;10741;52.272;9.580;2022-11-20T16:50:48;-0.40;99.90
21167;DHT22;10741;52.272;9.580;2022-11-20T16:53:14;-0.40;99.90
21167;DHT22;10741;52.272;9.580;2022-11-20T16:55:40;-0.40;99.90
21167;DHT22;10741;52.272;9.580;2022-11-20T16:58:06;-0.50;99.90
21167;DHT22;10741;52.272;9.580;2022-11-20T17:00:36;-0.50;99.90
21167;DHT22;10741;52.272;9.580;2022-11-20T17:03:02;-0.50;99.90
21167;DHT22;10741;52.272;9.580;2022-11-20T17:05:32;-0.50;99.90
21167;DHT22;10741;52.272;9.580;2022-11-20T17:07:58;-0.60;99.90
21167;DHT22;10741;52.272;9.580;2022-11-20T17:10:24;-0.60;99.90
21167;DHT22;10741;52.272;9.580;2022-11-20T17:12:49;-0.60;99.90
21167;DHT22;10741;52.272;9.580;2022-11-20T17:15:15;-0.60;99.90
21167;DHT22;10741;52.272;9.580;2022-11-20T17:17:41;-0.70;99.90
21167;DHT22;10741;52.272;9.580;2022-11-20T17:20:07;-0.70;99.90
21167;DHT22;10741;52.272;9.580;2022-11-20T17:22:33;-0.70;99.90
21167;DHT22;10741;52.272;9.580;2022-11-20T17:24:59;-0.80;99.90
21167;DHT22;10741;52.272;9.580;2022-11-20T17:27:25;-0.70;99.90